| Date | Time | Temp. (oF) | Dew Point (oF) | Rel. Hum. (%) | Press. (in.) | Wind Dir. | Wind Speed (mph) | Hourly Rainfall (in.) |
|
|---|---|---|---|---|---|---|---|---|---|
| 1 | 09/23 | 00:00 | 70 | 69 | 100 | 29.88 | SSE | 7 | 0.00 |
| 2 | 09/22 | 23:00 | 69 | 68 | 100 | 29.91 | ESE | 6 | 0.10 |
| 3 | 09/22 | 22:00 | 70 | 69 | 100 | 29.94 | SSE | 4 | 0.04 |
| 4 | 09/22 | 21:00 | 71 | 70 | 99 | 29.97 | SE | 5 | 0.01 |
| 5 | 09/22 | 20:00 | 73 | 71 | 94 | 29.98 | SE | 5 | 0.00 |
| 6 | 09/22 | 19:00 | 74 | 69 | 86 | 29.99 | SE | 4 | 0.00 |
| 7 | 09/22 | 18:00 | 75 | 69 | 82 | 30.00 | SW | 4 | 0.00 |
| 8 | miss | miss | miss | miss | miss | miss | miss | miss | |
| 9 | 09/22 | 17:47 | 75 | 68 | 81 | 30.00 | ESE | 4 | 0.00 |
| 10 | miss | miss | miss | miss | miss | miss | miss | miss | |
| 11 | 09/22 | 17:45 | 76 | 69 | 81 | 30.00 | SSW | 3 | 0.00 |
| 12 | miss | miss | miss | miss | miss | miss | miss | miss | |
| 13 | 09/22 | 17:43 | 76 | 69 | 81 | 30.00 | SE | 10 | 0.00 |
| 14 | miss | miss | miss | miss | miss | miss | miss | miss | |
| 15 | 09/22 | 17:41 | 76 | 69 | 80 | 30.00 | S | 6 | 0.00 |
| 16 | miss | miss | miss | miss | miss | miss | miss | miss | |
| 17 | 09/22 | 17:39 | 76 | 69 | 80 | 30.00 | S | 6 | 0.00 |
| 18 | miss | miss | miss | miss | miss | miss | miss | miss | |
| 19 | 09/22 | 17:37 | 76 | 69 | 80 | 30.01 | SE | 6 | 0.00 |
| 20 | miss | miss | miss | miss | miss | miss | miss | miss | |
| 21 | 09/22 | 17:35 | 76 | 69 | 80 | 30.01 | SE | 11 | 0.00 |
| 22 | miss | miss | miss | miss | miss | miss | miss | miss | |
| 23 | 09/22 | 17:33 | 76 | 69 | 80 | 30.01 | SW | 6 | 0.00 |
| 24 | miss | miss | miss | miss | miss | miss | miss | miss | |
| 25 | 09/22 | 17:31 | 76 | 69 | 80 | 30.00 | SE | 3 | 0.00 |
| 26 | miss | miss | miss | miss | miss | miss | miss | miss | |
| 27 | 09/22 | 17:31 | 76 | 69 | 80 | 30.00 | SE | 3 | 0.00 |
| 28 | miss | miss | miss | miss | miss | miss | miss | miss | |
| 29 | 09/22 | 17:31 | 76 | 69 | 80 | 30.00 | SE | 3 | 0.00 |
| 30 | miss | miss | miss | miss | miss | miss | miss | miss | |
| 31 | 09/22 | 17:31 | 76 | 69 | 80 | 30.00 | SE | 3 | 0.00 |
| 32 | 09/22 | 17:00 | 76 | 69 | 80 | 30.01 | ESE | 7 | 0.00 |
| 33 | 09/22 | 16:00 | 76 | 68 | 79 | 30.03 | E | 7 | 0.00 |
| 34 | 09/22 | 15:00 | 76 | 68 | 78 | 30.06 | S | 10 | 0.00 |
| 35 | 09/22 | 14:00 | 75 | 67 | 78 | 30.09 | S | 8 | 0.00 |
| 36 | 09/22 | 13:00 | 73 | 69 | 88 | 30.13 | SSE | 8 | 0.00 |
| 37 | 09/22 | 12:00 | 70 | 68 | 95 | 30.15 | S | 4 | 0.00 |
| 38 | 09/22 | 11:00 | 69 | 68 | 98 | 30.18 | E | 4 | 0.00 |
| 39 | 09/22 | 10:00 | 68 | 67 | 98 | 30.20 | SSE | 6 | 0.00 |
| 40 | 09/22 | 09:00 | 66 | 66 | 100 | 30.21 | SSE | 3 | 0.00 |
| 41 | 09/22 | 08:00 | 65 | 64 | 100 | 30.21 | ESE | 2 | 0.00 |
| 42 | 09/22 | 07:00 | 64 | 63 | 99 | 30.22 | NE | 3 | 0.00 |
| 43 | 09/22 | 06:00 | 64 | 63 | 98 | 30.22 | ENE | 1 | 0.00 |
| 44 | 09/22 | 05:00 | 64 | 63 | 98 | 30.22 | NE | 3 | 0.00 |
| 45 | 09/22 | 04:00 | 65 | 64 | 97 | 30.22 | NE | 2 | 0.00 |
| 46 | 09/22 | 03:00 | 64 | 62 | 96 | 30.23 | ENE | 1 | 0.00 |
| 47 | 09/22 | 02:00 | 65 | 63 | 96 | 30.25 | ESE | 1 | 0.00 |
| 48 | 09/22 | 01:00 | 65 | 63 | 95 | 30.26 | ENE | 1 | 0.00 |
| 49 | 09/22 | 00:00 | 66 | 63 | 92 | 30.26 | ENE | 0 | 0.00 |
| 50 | miss | miss | miss | miss | miss | miss | miss | miss | |
| 51 | 09/21 | Min | 60 | 46 | 62 | 30.23 | 300 | 0 | 0.00 |
| 52 | miss | miss | miss | miss | miss | miss | miss | miss | |
| 53 | 09/21 | Min | 60 | 46 | 62 | 30.23 | 300 | 0 | 0.00 |
| 54 | miss | miss | miss | miss | miss | miss | miss | miss | |
| 55 | 09/21 | 23:16 | 67 | 63 | 89 | 30.26 | ENE | 0 | 0.00 |
| 56 | miss | miss | miss | miss | miss | miss | miss | miss | |
| 57 | 09/21 | 23:14 | 67 | 63 | 89 | 30.26 | ENE | 0 | 0.00 |
| 58 | miss | miss | miss | miss | miss | miss | miss | miss | |
| 59 | 09/21 | 23:12 | 67 | 63 | 89 | 30.27 | ENE | 0 | 0.00 |
| 60 | miss | miss | miss | miss | miss | miss | miss | miss | |
| 61 | 09/21 | 23:10 | 67 | 63 | 89 | 30.27 | ENE | 0 | 0.00 |
| 62 | miss | miss | miss | miss | miss | miss | miss | miss | |
| 63 | 09/21 | 23:08 | 67 | 63 | 89 | 30.27 | ENE | 0 | 0.00 |
| 64 | miss | miss | miss | miss | miss | miss | miss | miss | |
| 65 | 09/21 | 23:06 | 67 | 63 | 89 | 30.27 | ENE | 0 | 0.00 |
| 66 | miss | miss | miss | miss | miss | miss | miss | miss | |
| 67 | 09/21 | 23:04 | 67 | 63 | 89 | 30.27 | ENE | 0 | 0.00 |
| 68 | miss | miss | miss | miss | miss | miss | miss | miss | |
| 69 | 09/21 | 23:02 | 67 | 63 | 89 | 30.27 | ENE | 0 | 0.00 |
| 70 | miss | miss | miss | miss | miss | miss | miss | miss | |
| 71 | 09/21 | 23:00 | 67 | 63 | 89 | 30.27 | ENE | 0 | 0.00 |
| 72 | 09/21 | 22:59 | 67 | 63 | 89 | 30.27 | ENE | 0 | 0.00 |
| 73 | miss | miss | miss | miss | miss | miss | miss | miss | |
| 74 | 09/21 | 22:58 | 67 | 63 | 89 | 30.27 | ENE | 0 | 0.00 |
| 75 | 09/21 | 22:00 | 68 | 64 | 88 | 30.27 | ENE | 0 | 0.00 |
| 76 | 09/21 | 21:00 | 68 | 63 | 85 | 30.26 | NE | 2 | 0.00 |
| 77 | 09/21 | 20:00 | 69 | 63 | 83 | 30.25 | E | 2 | 0.00 |
| 78 | 09/21 | 19:00 | 71 | 63 | 76 | 30.24 | E | 1 | 0.00 |
| 79 | 09/21 | 18:00 | 72 | 62 | 73 | 30.24 | ESE | 2 | 0.00 |
| 80 | 09/21 | 17:00 | 73 | 62 | 69 | 30.24 | E | 2 | 0.00 |
| 81 | 09/21 | 16:00 | 73 | 61 | 68 | 30.25 | E | 4 | 0.00 |
| 82 | 09/21 | 15:00 | 73 | 59 | 63 | 30.26 | E | 2 | 0.00 |
| 83 | miss | miss | miss | miss | miss | miss | miss | miss | |
| 84 | 09/20 | 06:58 | 0 | -64 | 3 | 29.00 | S | 0 | 7.00 |
| 85 | miss | miss | miss | miss | miss | miss | miss | miss | |
| 86 | 09/20 | 06:58 | 0 | -64 | 3 | 29.00 | S | 0 | 7.00 |
| 87 | miss | miss | miss | miss | miss | miss | miss | miss | |
| 88 | 09/20 | 06:58 | 0 | -64 | 3 | 29.00 | S | 0 | 7.00 |
| 89 | miss | miss | miss | miss | miss | miss | miss | miss | |
| 90 | 09/20 | 06:58 | 0 | -64 | 3 | 29.00 | S | 0 | 7.00 |
| 91 | 09/20 | 06:00 | 62 | 62 | 100 | 30.13 | S | 0 | 0.00 |
| 92 | 09/20 | 05:00 | 63 | 63 | 100 | 30.12 | S | 0 | 0.00 |
| 93 | 09/20 | 04:00 | 63 | 63 | 100 | 30.11 | SE | 0 | 0.00 |
| 94 | 09/20 | 03:00 | 64 | 63 | 100 | 30.11 | SE | 0 | 0.00 |
| 95 | 09/20 | 02:00 | 65 | 64 | 100 | 30.10 | SE | 0 | 0.00 |
| 96 | 09/20 | 01:00 | 66 | 65 | 99 | 30.10 | SSW | 0 | 0.00 |
| 97 | 09/20 | 00:00 | 67 | 66 | 99 | 30.10 | S | 1 | 0.00 |
| 98 | 09/19 | 23:00 | 67 | 66 | 99 | 30.10 | S | 0 | 0.00 |
| 99 | 09/19 | 22:00 | 68 | 66 | 96 | 30.09 | S | 0 | 0.00 |
| 100 | 09/19 | 21:00 | 69 | 67 | 96 | 30.08 | SSW | 4 | 0.00 |
| 101 | 09/19 | 20:00 | 69 | 67 | 95 | 30.04 | SW | 5 | 0.00 |
| 102 | 09/19 | 19:00 | 69 | 66 | 93 | 30.02 | S | 4 | 0.00 |
| 103 | 09/19 | 18:00 | 72 | 67 | 87 | 29.99 | SSW | 5 | 0.00 |
| 104 | 09/19 | 17:00 | 72 | 67 | 85 | 29.96 | SSW | 8 | 0.00 |
| 105 | 09/19 | 16:00 | 75 | 67 | 78 | 29.93 | S | 8 | 0.00 |